createdAt,value
2018-09-11T00:00:45.937Z,7.30
2018-09-11T00:01:45.927Z,7.10
2018-09-11T00:02:45.916Z,7.10
2018-09-11T00:03:45.906Z,8.00
2018-09-11T00:04:45.912Z,7.40
2018-09-11T00:05:45.885Z,8.20
2018-09-11T00:06:45.876Z,8.00
2018-09-11T00:07:45.875Z,7.90
2018-09-11T00:08:45.851Z,8.00
2018-09-11T00:09:45.854Z,8.30
2018-09-11T00:10:45.829Z,8.50
2018-09-11T00:11:45.834Z,9.30
2018-09-11T00:12:45.811Z,8.70
2018-09-11T00:13:45.798Z,8.40
2018-09-11T00:14:45.785Z,9.10
2018-09-11T00:15:45.792Z,9.50
2018-09-11T00:16:45.783Z,8.60
2018-09-11T00:17:45.759Z,9.10
2018-09-11T00:18:45.744Z,9.30
2018-09-11T00:19:45.744Z,9.60
2018-09-11T00:20:45.722Z,8.90
2018-09-11T00:21:45.710Z,8.80
2018-09-11T00:22:45.715Z,9.50
2018-09-11T00:23:45.688Z,8.80
2018-09-11T00:24:45.683Z,9.60
2018-09-11T00:25:45.668Z,10.00
2018-09-11T00:26:45.677Z,10.40
2018-09-11T00:27:45.648Z,9.90
2018-09-11T00:28:45.646Z,10.00
2018-09-11T00:29:45.635Z,10.40
2018-09-11T00:30:45.618Z,9.80
2018-09-11T00:31:45.606Z,10.50
2018-09-11T00:32:45.617Z,9.80
2018-09-11T00:33:45.585Z,10.10
2018-09-11T00:34:45.575Z,10.20
2018-09-11T00:35:45.564Z,10.80
2018-09-11T00:36:45.554Z,10.70
2018-09-11T00:37:45.558Z,10.50
2018-09-11T00:38:45.544Z,11.00
2018-09-11T00:39:45.523Z,10.40
2018-09-11T00:40:45.510Z,10.90
2018-09-11T00:41:45.499Z,10.20
2018-09-11T00:42:45.507Z,10.90
2018-09-11T00:43:45.483Z,11.10
2018-09-11T00:44:45.468Z,10.70
2018-09-11T00:45:45.463Z,10.60
2018-09-11T00:46:45.447Z,10.50
2018-09-11T00:47:45.480Z,11.00
2018-09-11T00:48:45.430Z,10.60
2018-09-11T00:49:45.417Z,10.60
2018-09-11T00:50:45.406Z,10.30
2018-09-11T00:51:45.432Z,10.40
2018-09-11T00:52:45.387Z,11.00
2018-09-11T00:53:45.388Z,10.50
2018-09-11T00:54:45.363Z,10.30
2018-09-11T00:55:45.401Z,9.90
2018-09-11T00:56:45.343Z,10.60
2018-09-11T00:57:45.335Z,10.70
2018-09-11T00:58:45.322Z,9.60
2018-09-11T00:59:45.322Z,9.60
2018-09-11T01:00:45.302Z,9.60
2018-09-11T01:01:45.306Z,10.10
2018-09-11T01:02:45.280Z,10.50
2018-09-11T01:03:45.272Z,11.20
2018-09-11T01:04:45.280Z,10.30
2018-09-11T01:05:45.247Z,10.70
2018-09-11T01:06:45.240Z,10.30
2018-09-11T01:07:45.228Z,10.50
2018-09-11T01:08:45.218Z,10.40
2018-09-11T01:09:45.278Z,11.00
2018-09-11T01:10:45.229Z,10.60
2018-09-11T01:11:45.245Z,10.30
2018-09-11T01:12:45.179Z,11.00
2018-09-11T01:13:45.166Z,10.50
2018-09-11T01:14:45.156Z,10.10
2018-09-11T01:15:45.147Z,10.60
2018-09-11T01:16:45.149Z,11.00
2018-09-11T01:17:45.137Z,10.30
2018-09-11T01:18:45.111Z,10.80
2018-09-11T01:19:45.103Z,10.80
2018-09-11T01:20:45.090Z,10.80
2018-09-11T01:21:45.083Z,11.20
2018-09-11T01:22:45.087Z,11.40
2018-09-11T01:23:45.076Z,10.90
2018-09-11T01:24:45.050Z,10.50
2018-09-11T01:25:45.042Z,10.50
2018-09-11T01:26:45.035Z,10.90
2018-09-11T01:27:45.032Z,10.70
2018-09-11T01:28:45.005Z,10.80
2018-09-11T01:29:44.995Z,11.40
2018-09-11T01:30:44.993Z,10.90
2018-09-11T01:31:44.973Z,11.40
2018-09-11T01:32:44.980Z,10.50
2018-09-11T01:33:44.955Z,10.30
2018-09-11T01:34:44.972Z,10.50
2018-09-11T01:35:44.934Z,10.60
2018-09-11T01:36:44.922Z,10.80
2018-09-11T01:37:44.916Z,10.50
2018-09-11T01:38:44.901Z,11.30
2018-09-11T01:39:44.912Z,10.90
2018-09-11T01:40:44.880Z,10.50
2018-09-11T01:41:44.875Z,11.30
2018-09-11T01:42:44.861Z,10.50
2018-09-11T01:43:44.849Z,10.90
2018-09-11T01:44:44.838Z,10.40
2018-09-11T01:45:44.842Z,10.20
2018-09-11T01:46:44.823Z,10.40
2018-09-11T01:47:44.809Z,10.60
2018-09-11T01:48:44.796Z,11.00
2018-09-11T01:49:44.789Z,11.20
2018-09-11T01:50:44.800Z,10.20
2018-09-11T01:51:44.770Z,10.60
2018-09-11T01:52:44.764Z,10.50
2018-09-11T01:53:44.745Z,9.80
2018-09-11T01:54:44.736Z,10.70
2018-09-11T01:55:44.725Z,10.10
2018-09-11T01:56:44.728Z,10.00
2018-09-11T01:57:44.704Z,11.10
2018-09-11T01:58:44.694Z,11.00
2018-09-11T01:59:44.709Z,10.50
2018-09-11T02:00:44.673Z,10.90
2018-09-11T02:01:44.686Z,10.40
2018-09-11T02:02:44.651Z,11.00
2018-09-11T02:03:44.639Z,10.50
2018-09-11T02:04:44.628Z,10.30
2018-09-11T02:05:44.617Z,10.50
2018-09-11T02:06:44.629Z,10.20
2018-09-11T02:07:44.600Z,10.90
2018-09-11T02:08:44.589Z,10.50
2018-09-11T02:09:44.582Z,9.90
2018-09-11T02:10:44.565Z,11.20
2018-09-11T02:11:44.578Z,10.70
2018-09-11T02:12:44.551Z,10.90
2018-09-11T02:13:44.538Z,10.90
2018-09-11T02:14:44.529Z,10.40
2018-09-11T02:15:44.515Z,9.80
2018-09-11T02:16:44.517Z,10.50
2018-09-11T02:17:44.493Z,9.90
2018-09-11T02:18:44.483Z,10.30
2018-09-11T02:19:44.470Z,10.70
2018-09-11T02:20:44.461Z,9.90
2018-09-11T02:21:44.467Z,10.70
2018-09-11T02:22:44.457Z,9.80
2018-09-11T02:23:44.427Z,10.20
2018-09-11T02:24:44.418Z,10.50
2018-09-11T02:25:44.467Z,9.30
2018-09-11T02:26:44.398Z,10.30
2018-09-11T02:27:44.401Z,9.60
2018-09-11T02:28:44.374Z,10.30
2018-09-11T02:29:44.364Z,10.40
2018-09-11T02:30:44.355Z,11.00
2018-09-11T02:31:44.383Z,10.90
2018-09-11T02:32:44.331Z,11.40
2018-09-11T02:33:44.321Z,10.10
2018-09-11T02:34:44.314Z,10.30
2018-09-11T02:35:44.371Z,11.50
2018-09-11T02:36:44.290Z,10.80
2018-09-11T02:37:44.292Z,10.90
2018-09-11T02:38:44.306Z,11.20
2018-09-11T02:39:44.256Z,10.90
2018-09-11T02:40:44.247Z,11.30
2018-09-11T02:41:44.237Z,10.70
2018-09-11T02:42:44.225Z,11.80
2018-09-11T02:43:44.216Z,11.60
2018-09-11T02:44:44.229Z,10.80
2018-09-11T02:45:44.196Z,11.60
2018-09-11T02:46:44.184Z,11.50
2018-09-11T02:47:44.176Z,10.90
2018-09-11T02:48:44.173Z,11.30
2018-09-11T02:49:44.177Z,11.40
2018-09-11T02:50:44.147Z,11.50
2018-09-11T02:51:44.136Z,12.30
2018-09-11T02:52:44.122Z,11.50
2018-09-11T02:53:44.112Z,11.70
2018-09-11T02:54:44.105Z,11.50
2018-09-11T02:55:44.104Z,11.80
2018-09-11T02:56:44.085Z,11.10
2018-09-11T02:57:44.067Z,11.60
2018-09-11T02:58:44.057Z,11.40
2018-09-11T02:59:44.047Z,11.80
2018-09-11T03:00:44.059Z,11.10
2018-09-11T03:01:44.028Z,11.20
2018-09-11T03:02:44.014Z,12.30
2018-09-11T03:03:44.006Z,11.60
2018-09-11T03:04:43.993Z,12.70
2018-09-11T03:05:44.000Z,12.20
2018-09-11T03:06:43.977Z,11.90
2018-09-11T03:07:43.962Z,12.80
2018-09-11T03:08:43.988Z,12.00
2018-09-11T03:09:43.951Z,12.60
2018-09-11T03:10:43.930Z,11.60
2018-09-11T03:11:43.924Z,12.10
2018-09-11T03:12:43.938Z,11.80
2018-09-11T03:13:43.901Z,11.70
2018-09-11T03:14:43.906Z,11.60
2018-09-11T03:15:43.899Z,12.80
2018-09-11T03:16:43.875Z,12.10
2018-09-11T03:17:43.859Z,12.80
2018-09-11T03:18:43.857Z,12.70
2018-09-11T03:19:43.852Z,12.00
2018-09-11T03:20:43.828Z,13.00
2018-09-11T03:21:43.838Z,12.70
2018-09-11T03:22:43.819Z,12.80
2018-09-11T03:23:43.796Z,12.60
2018-09-11T03:24:43.786Z,13.20
2018-09-11T03:25:43.774Z,12.80
2018-09-11T03:26:43.763Z,11.90
2018-09-11T03:27:43.764Z,13.00
2018-09-11T03:28:43.739Z,12.40
2018-09-11T03:29:43.731Z,13.10
2018-09-11T03:30:43.735Z,12.30
2018-09-11T03:31:43.721Z,12.80
2018-09-11T03:32:43.695Z,11.60
2018-09-11T03:33:43.684Z,12.90
2018-09-11T03:34:43.721Z,12.00
2018-09-11T03:35:43.664Z,12.30
2018-09-11T03:36:43.655Z,11.70
2018-09-11T03:37:43.677Z,11.80
2018-09-11T03:38:43.632Z,12.10
2018-09-11T03:39:43.618Z,11.70
2018-09-11T03:40:43.622Z,11.80
2018-09-11T03:41:43.602Z,11.50
2018-09-11T03:42:43.593Z,11.60
2018-09-11T03:43:43.600Z,10.50
2018-09-11T03:44:43.566Z,10.90
2018-09-11T03:45:43.553Z,12.20
2018-09-11T03:46:43.542Z,11.00
2018-09-11T03:47:43.537Z,11.40
2018-09-11T03:48:43.520Z,11.10
2018-09-11T03:49:43.526Z,10.80
2018-09-11T03:50:43.504Z,11.00
2018-09-11T03:51:43.490Z,10.80
2018-09-11T03:52:43.476Z,10.40
2018-09-11T03:53:43.468Z,10.60
2018-09-11T03:54:43.486Z,10.60
2018-09-11T03:55:43.447Z,11.00
2018-09-11T03:56:43.436Z,10.80
2018-09-11T03:57:43.422Z,9.80
2018-09-11T03:58:43.411Z,10.10
2018-09-11T03:59:43.404Z,9.90
2018-09-11T04:00:43.409Z,9.50
2018-09-11T04:01:43.381Z,10.10
2018-09-11T04:02:43.383Z,9.10
2018-09-11T04:03:43.361Z,8.70
2018-09-11T04:04:43.349Z,8.70
2018-09-11T04:05:43.356Z,9.40
2018-09-11T04:06:43.325Z,9.30
2018-09-11T04:07:43.322Z,9.00
2018-09-11T04:08:43.307Z,8.40
2018-09-11T04:09:43.291Z,8.70
2018-09-11T04:10:43.281Z,8.20
2018-09-11T04:11:43.291Z,8.00
2018-09-11T04:12:43.260Z,8.40
2018-09-11T04:13:43.269Z,8.80
2018-09-11T04:14:43.238Z,8.00
2018-09-11T04:15:43.258Z,8.10
2018-09-11T04:16:43.218Z,8.20
2018-09-11T04:17:43.210Z,8.60
2018-09-11T04:18:43.215Z,8.50
2018-09-11T04:19:43.202Z,8.40
2018-09-11T04:20:43.189Z,7.80
2018-09-11T04:21:43.168Z,8.70
2018-09-11T04:22:43.162Z,8.00
2018-09-11T04:23:43.141Z,7.60
2018-09-11T04:24:43.139Z,8.00
2018-09-11T04:25:43.170Z,7.30
2018-09-11T04:26:43.112Z,7.40
2018-09-11T04:27:43.101Z,7.20
2018-09-11T04:28:43.093Z,7.10
2018-09-11T04:29:43.091Z,7.40
2018-09-11T04:30:43.068Z,7.60
2018-09-11T04:31:43.069Z,6.60
2018-09-11T04:32:43.044Z,7.00
2018-09-11T04:33:43.037Z,6.90
2018-09-11T04:34:43.024Z,6.60
2018-09-11T04:35:43.013Z,6.50
2018-09-11T04:36:43.031Z,6.70
2018-09-11T04:37:42.992Z,7.20
2018-09-11T04:38:42.982Z,6.40
2018-09-11T04:39:42.970Z,6.10
2018-09-11T04:40:42.961Z,6.40
2018-09-11T04:41:42.963Z,6.40
2018-09-11T04:42:42.937Z,5.80
2018-09-11T04:43:42.940Z,6.10
2018-09-11T04:44:42.915Z,6.00
2018-09-11T04:45:42.911Z,5.30
2018-09-11T04:46:42.909Z,5.80
2018-09-11T04:47:42.883Z,5.80
2018-09-11T04:48:42.875Z,6.10
2018-09-11T04:49:42.877Z,5.70
2018-09-11T04:50:42.851Z,5.40
2018-09-11T04:51:42.854Z,5.80
2018-09-11T04:52:42.829Z,5.40
2018-09-11T04:53:42.820Z,5.20
2018-09-11T04:54:42.809Z,5.40
2018-09-11T04:55:42.798Z,5.90
2018-09-11T04:56:42.797Z,5.20
2018-09-11T04:57:42.775Z,6.10
2018-09-11T04:58:42.781Z,5.70
2018-09-11T04:59:42.754Z,5.90
2018-09-11T05:00:42.744Z,5.30
2018-09-11T05:01:42.734Z,5.20
2018-09-11T05:02:42.736Z,5.50
2018-09-11T05:03:42.711Z,5.40
2018-09-11T05:04:42.702Z,5.60
2018-09-11T05:05:42.690Z,5.80
2018-09-11T05:06:42.689Z,5.90
2018-09-11T05:07:42.690Z,6.20
2018-09-11T05:08:42.655Z,5.60
2018-09-11T05:09:42.646Z,6.00
2018-09-11T05:10:42.637Z,5.60
2018-09-11T05:11:42.629Z,6.30
2018-09-11T05:12:42.615Z,6.10
2018-09-11T05:13:42.611Z,5.80
2018-09-11T05:14:42.596Z,5.70
2018-09-11T05:15:42.591Z,5.70
2018-09-11T05:16:42.573Z,6.40
2018-09-11T05:17:42.569Z,6.00
2018-09-11T05:18:42.550Z,5.70
2018-09-11T05:19:42.537Z,4.90
2018-09-11T05:20:42.531Z,5.20
2018-09-11T05:21:42.517Z,5.20
2018-09-11T05:22:42.523Z,4.80
2018-09-11T05:23:42.493Z,5.20
2018-09-11T05:24:42.495Z,5.10
2018-09-11T05:25:42.476Z,4.60
2018-09-11T05:26:42.461Z,5.20
2018-09-11T05:27:42.456Z,4.60
2018-09-11T05:28:42.441Z,5.00
2018-09-11T05:29:42.445Z,4.60
2018-09-11T05:30:42.423Z,5.10
2018-09-11T05:31:42.407Z,4.90
2018-09-11T05:32:42.397Z,4.40
2018-09-11T05:33:42.389Z,4.70
2018-09-11T05:34:42.403Z,5.00
2018-09-11T05:35:42.369Z,4.60
2018-09-11T05:36:42.355Z,4.90
2018-09-11T05:37:42.347Z,4.00
2018-09-11T05:38:42.337Z,4.30
2018-09-11T05:39:42.322Z,4.10
2018-09-11T05:40:42.328Z,4.60
2018-09-11T05:41:42.303Z,3.90
2018-09-11T05:42:42.292Z,3.70
2018-09-11T05:43:42.280Z,3.90
2018-09-11T05:44:42.270Z,3.80
2018-09-11T05:45:42.276Z,3.90
2018-09-11T05:46:42.246Z,3.90
2018-09-11T05:47:42.236Z,3.70
2018-09-11T05:48:42.229Z,3.50
2018-09-11T05:49:42.218Z,3.60
2018-09-11T05:50:42.218Z,3.70
2018-09-11T05:51:42.195Z,3.20
2018-09-11T05:52:42.200Z,3.50
2018-09-11T05:53:42.174Z,3.20
2018-09-11T05:54:42.161Z,3.60
2018-09-11T05:55:42.152Z,2.90
2018-09-11T05:56:42.140Z,3.70
2018-09-11T05:57:42.150Z,3.30
2018-09-11T05:58:42.119Z,2.70
2018-09-11T05:59:42.109Z,3.10
2018-09-11T06:00:42.100Z,3.00
2018-09-11T06:01:42.087Z,3.30
2018-09-11T06:02:42.085Z,3.00
2018-09-11T06:03:42.083Z,3.10
2018-09-11T06:04:42.056Z,2.80
2018-09-11T06:05:42.135Z,2.70
2018-09-11T06:06:42.035Z,2.60
2018-09-11T06:07:42.024Z,2.90
2018-09-11T06:08:42.030Z,2.40
2018-09-11T06:09:42.002Z,2.60
2018-09-11T06:10:41.995Z,2.80
2018-09-11T06:11:41.982Z,2.80
2018-09-11T06:12:41.971Z,2.60
2018-09-11T06:13:41.978Z,3.00
2018-09-11T06:14:41.947Z,2.60
2018-09-11T06:15:41.936Z,2.90
2018-09-11T06:16:41.928Z,2.80
2018-09-11T06:17:41.917Z,2.20
2018-09-11T06:18:41.908Z,2.80
2018-09-11T06:19:41.915Z,2.40
2018-09-11T06:20:41.884Z,3.10
2018-09-11T06:21:41.872Z,2.60
2018-09-11T06:22:41.863Z,2.40
2018-09-11T06:23:41.854Z,2.50
2018-09-11T06:24:41.838Z,2.60
2018-09-11T06:25:41.878Z,2.70
2018-09-11T06:26:41.818Z,2.30
2018-09-11T06:27:41.804Z,2.40
2018-09-11T06:28:41.795Z,2.20
2018-09-11T06:29:41.781Z,2.40
2018-09-11T06:30:41.770Z,2.00
2018-09-11T06:31:41.779Z,2.70
2018-09-11T06:32:41.749Z,2.60
2018-09-11T06:33:41.741Z,2.10
2018-09-11T06:34:41.730Z,2.70
2018-09-11T06:35:41.720Z,2.70
2018-09-11T06:36:41.707Z,3.00
2018-09-11T06:37:41.712Z,2.70
2018-09-11T06:38:41.680Z,2.40
2018-09-11T06:39:41.670Z,2.50
2018-09-11T06:40:41.660Z,2.60
2018-09-11T06:41:41.667Z,2.30
2018-09-11T06:42:41.637Z,2.70
2018-09-11T06:43:41.627Z,2.50
2018-09-11T06:44:41.636Z,2.80
2018-09-11T06:45:41.613Z,3.00
2018-09-11T06:46:41.594Z,3.00
2018-09-11T06:47:41.606Z,2.60
2018-09-11T06:48:41.572Z,2.60
2018-09-11T06:49:41.559Z,2.60
2018-09-11T06:50:41.547Z,2.80
2018-09-11T06:51:41.538Z,3.00
2018-09-11T06:52:41.527Z,2.40
2018-09-11T06:53:41.537Z,2.60
2018-09-11T06:54:41.576Z,2.90
2018-09-11T06:55:41.495Z,2.90
2018-09-11T06:56:41.483Z,2.70
2018-09-11T06:57:41.470Z,2.60
2018-09-11T06:58:41.459Z,2.80
2018-09-11T06:59:41.465Z,3.20
2018-09-11T07:00:41.573Z,2.70
2018-09-11T07:01:41.447Z,2.70
2018-09-11T07:02:41.415Z,3.00
2018-09-11T07:03:41.406Z,3.00
2018-09-11T07:04:41.411Z,2.50
2018-09-11T07:05:41.383Z,3.10
2018-09-11T07:06:41.370Z,3.10
2018-09-11T07:07:41.362Z,2.60
2018-09-11T07:08:41.348Z,2.80
2018-09-11T07:09:41.341Z,2.90
2018-09-11T07:10:41.340Z,3.00
2018-09-11T07:11:41.316Z,3.10
2018-09-11T07:12:41.306Z,3.50
2018-09-11T07:13:41.295Z,3.40
2018-09-11T07:14:41.368Z,2.80
2018-09-11T07:15:41.291Z,3.60
2018-09-11T07:16:41.260Z,2.90
2018-09-11T07:17:41.252Z,3.10
2018-09-11T07:18:41.241Z,3.30
2018-09-11T07:19:41.271Z,3.30
2018-09-11T07:20:41.237Z,3.30
2018-09-11T07:21:41.223Z,3.10
2018-09-11T07:22:41.195Z,2.70
2018-09-11T07:23:41.187Z,3.40
2018-09-11T07:24:41.177Z,3.00
2018-09-11T07:25:41.169Z,3.00
2018-09-11T07:26:41.169Z,3.10
2018-09-11T07:27:41.145Z,3.50
2018-09-11T07:28:41.132Z,2.90
2018-09-11T07:29:41.123Z,3.10
2018-09-11T07:30:41.124Z,3.40
2018-09-11T07:31:41.100Z,3.00
2018-09-11T07:32:41.120Z,3.30
2018-09-11T07:33:41.078Z,3.70
2018-09-11T07:34:41.068Z,4.00
2018-09-11T07:35:41.056Z,3.40
2018-09-11T07:36:41.046Z,3.70
2018-09-11T07:37:41.076Z,3.50
2018-09-11T07:38:41.060Z,3.80
2018-09-11T07:39:41.026Z,3.60
2018-09-11T07:40:41.004Z,3.50
2018-09-11T07:41:41.012Z,3.60
2018-09-11T07:42:40.987Z,3.60
2018-09-11T07:43:40.973Z,3.50
2018-09-11T07:44:40.960Z,3.30
2018-09-11T07:45:40.952Z,3.90
2018-09-11T07:46:40.940Z,3.80
2018-09-11T07:47:40.941Z,3.70
2018-09-11T07:48:40.916Z,3.40
2018-09-11T07:49:40.908Z,3.30
2018-09-11T07:50:40.895Z,3.30
2018-09-11T07:51:40.887Z,3.60
2018-09-11T07:52:41.006Z,3.70
2018-09-11T07:53:40.864Z,3.30
2018-09-11T07:54:40.854Z,2.80
2018-09-11T07:55:40.841Z,3.20
2018-09-11T07:56:40.830Z,3.80
2018-09-11T07:57:40.900Z,3.50
2018-09-11T07:58:40.828Z,3.40
2018-09-11T07:59:40.798Z,3.10
2018-09-11T08:00:40.788Z,3.40
2018-09-11T08:01:40.782Z,3.50
2018-09-11T08:02:40.767Z,3.50
2018-09-11T08:03:40.756Z,3.00
2018-09-11T08:04:40.759Z,3.80
2018-09-11T08:05:40.745Z,2.70
2018-09-11T08:06:40.724Z,3.30
2018-09-11T08:07:40.711Z,2.80
2018-09-11T08:08:40.699Z,2.60
2018-09-11T08:09:40.755Z,2.70
2018-09-11T08:10:40.680Z,2.90
2018-09-11T08:11:40.690Z,2.90
2018-09-11T08:12:40.663Z,2.80
2018-09-11T08:13:40.647Z,2.70
2018-09-11T08:14:40.640Z,2.70
2018-09-11T08:15:40.624Z,2.60
2018-09-11T08:16:40.614Z,2.80
2018-09-11T08:17:40.627Z,2.60
2018-09-11T08:18:40.592Z,2.60
2018-09-11T08:19:40.599Z,2.70
2018-09-11T08:20:40.575Z,2.70
2018-09-11T08:21:40.574Z,2.50
2018-09-11T08:22:40.555Z,2.70
2018-09-11T08:23:40.538Z,2.30
2018-09-11T08:24:40.526Z,2.60
2018-09-11T08:25:40.514Z,2.30
2018-09-11T08:26:40.545Z,2.40
2018-09-11T08:27:40.516Z,2.80
2018-09-11T08:28:40.489Z,2.40
2018-09-11T08:29:40.473Z,2.10
2018-09-11T08:30:40.465Z,2.20
2018-09-11T08:31:40.455Z,2.40
2018-09-11T08:32:40.457Z,2.10
2018-09-11T08:33:40.431Z,2.10
2018-09-11T08:34:40.456Z,2.60
2018-09-11T08:35:40.415Z,2.30
2018-09-11T08:36:40.403Z,1.90
2018-09-11T08:37:40.432Z,1.60
2018-09-11T08:38:40.383Z,1.90
2018-09-11T08:39:40.369Z,1.90
2018-09-11T08:40:40.357Z,2.10
2018-09-11T08:41:40.350Z,1.60
2018-09-11T08:42:40.340Z,2.10
2018-09-11T08:43:40.339Z,1.70
2018-09-11T08:44:40.315Z,1.30
2018-09-11T08:45:40.308Z,1.70
2018-09-11T08:46:40.366Z,1.80
2018-09-11T08:47:40.286Z,1.60
2018-09-11T08:48:40.293Z,1.80
2018-09-11T08:49:40.262Z,1.50
2018-09-11T08:50:40.253Z,1.90
2018-09-11T08:51:40.240Z,2.00
2018-09-11T08:52:40.311Z,2.00
2018-09-11T08:53:40.218Z,1.90
2018-09-11T08:54:40.224Z,1.50
2018-09-11T08:55:40.194Z,1.40
2018-09-11T08:56:40.189Z,1.40
2018-09-11T08:57:40.175Z,1.40
2018-09-11T08:58:40.253Z,1.30
2018-09-11T08:59:40.170Z,1.20
2018-09-11T09:00:40.143Z,1.40
2018-09-11T09:01:40.135Z,1.20
2018-09-11T09:02:40.121Z,1.30
2018-09-11T09:03:40.109Z,1.20
2018-09-11T09:04:40.124Z,1.20
2018-09-11T09:05:40.087Z,1.40
2018-09-11T09:06:40.078Z,1.00
2018-09-11T09:07:40.072Z,1.30
2018-09-11T09:08:40.059Z,1.30
2018-09-11T09:09:40.044Z,1.00
2018-09-11T09:10:40.056Z,1.20
2018-09-11T09:11:40.025Z,1.10
2018-09-11T09:12:40.016Z,1.00
2018-09-11T09:13:40.007Z,1.20
2018-09-11T09:14:39.993Z,0.90
2018-09-11T09:15:40.018Z,1.30
2018-09-11T09:16:39.986Z,1.20
2018-09-11T09:17:39.965Z,1.40
2018-09-11T09:18:39.950Z,1.30
2018-09-11T09:19:39.937Z,1.30
2018-09-11T09:20:39.955Z,1.40
2018-09-11T09:21:39.931Z,1.20
2018-09-11T09:22:39.907Z,1.70
2018-09-11T09:23:39.897Z,1.30
2018-09-11T09:24:39.888Z,1.30
2018-09-11T09:25:39.875Z,1.30
2018-09-11T09:26:39.879Z,1.10
2018-09-11T09:27:39.882Z,1.00
2018-09-11T09:28:39.844Z,1.10
2018-09-11T09:29:39.840Z,1.10
2018-09-11T09:30:39.824Z,1.00
2018-09-11T09:31:39.832Z,0.90
2018-09-11T09:32:39.802Z,1.00
2018-09-11T09:33:39.788Z,1.00
2018-09-11T09:34:39.780Z,1.00
2018-09-11T09:35:39.787Z,1.00
2018-09-11T09:36:39.828Z,1.00
2018-09-11T09:37:39.764Z,1.40
2018-09-11T09:38:39.736Z,1.20
2018-09-11T09:39:39.726Z,1.20
2018-09-11T09:40:39.715Z,1.10
2018-09-11T09:41:39.706Z,1.00
2018-09-11T09:42:39.741Z,1.10
2018-09-11T09:43:39.704Z,1.10
2018-09-11T09:44:39.672Z,1.10
2018-09-11T09:45:39.664Z,1.10
2018-09-11T09:46:39.675Z,1.10
2018-09-11T09:47:39.666Z,0.90
2018-09-11T09:48:39.632Z,1.10
2018-09-11T09:49:39.620Z,1.10
2018-09-11T09:50:39.663Z,0.90
2018-09-11T09:51:39.600Z,1.10
2018-09-11T09:52:39.588Z,1.00
2018-09-11T09:53:39.591Z,1.20
2018-09-11T09:54:39.568Z,1.20
2018-09-11T09:55:39.576Z,1.20
2018-09-11T09:56:39.548Z,1.10
2018-09-11T09:57:39.539Z,1.40
2018-09-11T09:58:39.524Z,1.10
2018-09-11T09:59:39.529Z,1.10
2018-09-11T10:00:39.505Z,1.10
2018-09-11T10:01:39.508Z,1.50
2018-09-11T10:02:39.485Z,1.20
2018-09-11T10:03:39.474Z,1.20
2018-09-11T10:04:39.500Z,1.10
2018-09-11T10:05:39.450Z,1.10
2018-09-11T10:06:39.447Z,1.40
2018-09-11T10:07:39.446Z,1.00
2018-09-11T10:08:39.418Z,1.20
2018-09-11T10:09:39.408Z,1.00
2018-09-11T10:10:39.400Z,1.10
2018-09-11T10:11:39.430Z,1.30
2018-09-11T10:12:39.376Z,1.20
2018-09-11T10:13:39.365Z,1.10
2018-09-11T10:14:39.355Z,1.20
2018-09-11T10:15:39.368Z,1.10
2018-09-11T10:16:39.334Z,1.20
2018-09-11T10:17:39.335Z,1.00
2018-09-11T10:18:39.315Z,1.20
2018-09-11T10:19:39.302Z,1.10
2018-09-11T10:20:39.291Z,1.20
2018-09-11T10:21:39.324Z,1.00
2018-09-11T10:22:39.271Z,1.10
2018-09-11T10:23:39.259Z,1.20
2018-09-11T10:24:39.255Z,1.20
2018-09-11T10:25:39.260Z,1.50
2018-09-11T10:26:39.234Z,1.30
2018-09-11T10:27:39.260Z,1.20
2018-09-11T10:28:39.225Z,1.10
2018-09-11T10:29:39.200Z,1.50
2018-09-11T10:30:39.188Z,1.30
2018-09-11T10:31:39.191Z,1.30
2018-09-11T10:32:39.166Z,1.30
2018-09-11T10:33:39.217Z,1.40
2018-09-11T10:34:39.159Z,1.20
2018-09-11T10:35:39.136Z,1.10
2018-09-11T10:36:39.129Z,1.00
2018-09-11T10:37:39.112Z,1.20
2018-09-11T10:38:39.116Z,1.30
2018-09-11T10:39:39.111Z,1.30
2018-09-11T10:40:39.084Z,1.30
2018-09-11T10:41:39.082Z,1.20
2018-09-11T10:42:39.061Z,1.50
2018-09-11T10:43:39.064Z,1.20
2018-09-11T10:44:39.056Z,1.60
2018-09-11T10:45:39.028Z,1.20
2018-09-11T10:46:39.017Z,1.20
2018-09-11T10:47:39.011Z,1.40
2018-09-11T10:48:39.038Z,1.20
2018-09-11T10:49:39.003Z,1.20
2018-09-11T10:50:38.981Z,1.10
2018-09-11T10:51:38.972Z,1.20
2018-09-11T10:52:38.955Z,1.40
2018-09-11T10:53:38.961Z,1.20
2018-09-11T10:54:38.969Z,1.30
2018-09-11T10:55:38.924Z,1.50
2018-09-11T10:56:38.915Z,1.30
2018-09-11T10:57:38.903Z,1.50
2018-09-11T10:58:38.893Z,1.20
2018-09-11T10:59:38.883Z,1.20
2018-09-11T11:00:38.888Z,1.30
2018-09-11T11:01:38.861Z,1.30
2018-09-11T11:02:38.852Z,1.20
2018-09-11T11:03:38.853Z,1.50
2018-09-11T11:04:38.848Z,1.40
2018-09-11T11:05:38.824Z,1.30
2018-09-11T11:06:38.824Z,1.30
2018-09-11T11:07:38.816Z,1.20
2018-09-11T11:08:38.788Z,1.20
2018-09-11T11:09:38.781Z,1.20
2018-09-11T11:10:38.784Z,1.20
2018-09-11T11:11:38.759Z,1.40
2018-09-11T11:12:38.749Z,1.70
2018-09-11T11:13:38.739Z,3.60
2018-09-11T11:14:38.726Z,7.20
2018-09-11T11:15:38.735Z,2.40
2018-09-11T11:16:38.706Z,1.40
2018-09-11T11:17:38.695Z,1.30
2018-09-11T11:18:38.688Z,2.00
2018-09-11T11:19:38.682Z,1.40
2018-09-11T11:20:38.663Z,1.60
2018-09-11T11:21:38.666Z,2.50
2018-09-11T11:22:38.656Z,1.90
2018-09-11T11:23:38.633Z,1.90
2018-09-11T11:24:38.625Z,1.40
2018-09-11T11:25:38.658Z,1.30
2018-09-11T11:26:38.615Z,1.20
2018-09-11T11:27:38.599Z,1.40
2018-09-11T11:28:38.582Z,1.20
2018-09-11T11:29:38.573Z,1.20
2018-09-11T11:30:38.566Z,1.20
2018-09-11T11:31:38.566Z,1.10
2018-09-11T11:32:38.541Z,1.20
2018-09-11T11:33:38.529Z,1.20
2018-09-11T11:34:38.534Z,1.10
2018-09-11T11:35:38.528Z,1.20
2018-09-11T11:36:38.568Z,1.00
2018-09-11T11:37:38.503Z,1.00
2018-09-11T11:38:38.496Z,1.20
2018-09-11T11:39:38.470Z,1.40
2018-09-11T11:40:38.455Z,1.10
2018-09-11T11:41:38.483Z,1.20
2018-09-11T11:42:38.491Z,1.20
2018-09-11T11:43:38.424Z,1.40
2018-09-11T11:44:38.422Z,1.00
2018-09-11T11:45:38.502Z,1.10
2018-09-11T11:46:38.393Z,1.40
2018-09-11T11:47:38.403Z,1.40
2018-09-11T11:48:38.373Z,1.10
2018-09-11T11:49:38.363Z,1.10
2018-09-11T11:50:38.355Z,1.10
2018-09-11T11:51:38.357Z,1.20
2018-09-11T11:52:38.373Z,1.40
2018-09-11T11:53:38.320Z,1.30
2018-09-11T11:54:38.317Z,1.00
2018-09-11T11:55:38.301Z,1.10
2018-09-11T11:56:38.303Z,1.20
2018-09-11T11:57:38.321Z,1.10
2018-09-11T11:58:38.269Z,1.40
2018-09-11T11:59:38.256Z,1.10
2018-09-11T12:00:38.249Z,1.20
2018-09-11T12:01:38.297Z,1.10
2018-09-11T12:02:38.228Z,1.10
2018-09-11T12:03:38.239Z,1.10
2018-09-11T12:04:38.207Z,1.00
2018-09-11T12:05:38.197Z,1.20
2018-09-11T12:06:38.186Z,1.10
2018-09-11T12:07:38.234Z,0.90
2018-09-11T12:08:38.163Z,1.00
2018-09-11T12:09:38.548Z,0.90
2018-09-11T12:10:38.142Z,1.20
2018-09-11T12:11:38.158Z,1.20
2018-09-11T12:12:38.123Z,1.20
2018-09-11T12:13:38.112Z,0.90
2018-09-11T12:14:38.105Z,0.80
2018-09-11T12:15:38.113Z,1.00
2018-09-11T12:16:38.083Z,1.00
2018-09-11T12:17:38.069Z,1.00
2018-09-11T12:18:38.109Z,1.20
2018-09-11T12:19:38.051Z,1.00
2018-09-11T12:20:38.059Z,0.90
2018-09-11T12:21:38.028Z,1.00
2018-09-11T12:22:38.024Z,1.20
2018-09-11T12:23:38.008Z,1.20
2018-09-11T12:24:37.999Z,0.90
2018-09-11T12:25:38.097Z,1.20
2018-09-11T12:26:38.038Z,1.00
2018-09-11T12:27:37.983Z,1.20
2018-09-11T12:28:37.977Z,1.10
2018-09-11T12:29:37.947Z,1.20
2018-09-11T12:30:37.935Z,1.00
2018-09-11T12:31:37.928Z,1.50
2018-09-11T12:32:37.919Z,1.20
2018-09-11T12:33:37.907Z,0.90
2018-09-11T12:34:37.937Z,1.00
2018-09-11T12:35:37.888Z,1.40
2018-09-11T12:36:37.877Z,1.10
2018-09-11T12:37:37.865Z,1.10
2018-09-11T12:38:37.852Z,0.90
2018-09-11T12:39:37.842Z,1.10
2018-09-11T12:40:37.856Z,1.00
2018-09-11T12:41:37.822Z,1.10
2018-09-11T12:42:37.811Z,1.10
2018-09-11T12:43:37.806Z,1.00
2018-09-11T12:44:37.790Z,1.00
2018-09-11T12:45:37.851Z,1.10
2018-09-11T12:46:38.109Z,1.10
2018-09-11T12:47:37.995Z,1.10
2018-09-11T12:48:37.849Z,1.10
2018-09-11T12:49:37.740Z,1.20
2018-09-11T12:50:37.729Z,0.90
2018-09-11T12:51:37.738Z,1.00
2018-09-11T12:52:37.769Z,1.40
2018-09-11T12:53:37.697Z,1.20
2018-09-11T12:54:37.692Z,1.10
2018-09-11T12:55:37.676Z,1.30
2018-09-11T12:56:37.689Z,0.90
2018-09-11T12:57:37.662Z,1.30
2018-09-11T12:58:37.647Z,0.80
2018-09-11T12:59:37.637Z,1.00
2018-09-11T13:00:37.644Z,1.30
2018-09-11T13:01:37.617Z,1.10
2018-09-11T13:02:37.636Z,1.00
2018-09-11T13:03:37.593Z,0.90
2018-09-11T13:04:37.589Z,1.10
2018-09-11T13:05:37.587Z,1.00
2018-09-11T13:06:37.564Z,1.00
2018-09-11T13:07:37.570Z,1.20
2018-09-11T13:08:37.557Z,1.00
2018-09-11T13:09:37.712Z,1.20
2018-09-11T13:10:37.523Z,1.10
2018-09-11T13:11:37.526Z,1.20